createdAt,value
2023-02-03T00:00:54.227Z,5.60
2023-02-03T00:03:25.677Z,9.50
2023-02-03T00:06:01.916Z,4.68
2023-02-03T00:08:47.925Z,7.10
2023-02-03T00:11:22.494Z,10.80
2023-02-03T00:14:03.226Z,6.13
2023-02-03T00:16:38.743Z,6.07
2023-02-03T00:19:11.601Z,4.75
2023-02-03T00:21:57.082Z,3.97
2023-02-03T00:24:34.343Z,9.25
2023-02-03T00:27:12.468Z,5.83
2023-02-03T00:29:48.851Z,7.75
2023-02-03T00:32:24.305Z,6.63
2023-02-03T00:34:52.567Z,10.20
2023-02-03T00:37:27.785Z,8.38
2023-02-03T00:39:57.335Z,9.57
2023-02-03T00:42:49.859Z,6.70
2023-02-03T00:45:35.489Z,6.88
2023-02-03T00:48:10.465Z,6.28
2023-02-03T00:50:49.340Z,5.43
2023-02-03T00:53:18.476Z,6.07
2023-02-03T00:57:18.832Z,7.05
2023-02-03T00:59:09.562Z,10.52
2023-02-03T01:01:43.237Z,4.57
2023-02-03T01:04:20.939Z,5.78
2023-02-03T01:07:01.073Z,3.40
2023-02-03T01:09:30.772Z,6.75
2023-02-03T01:12:18.482Z,7.22
2023-02-03T01:14:52.534Z,8.75
2023-02-03T01:17:24.920Z,6.72
2023-02-03T01:20:14.201Z,5.67
2023-02-03T01:25:32.427Z,3.95
2023-02-03T01:28:08.662Z,6.70
2023-02-03T01:30:46.570Z,6.35
2023-02-03T01:33:57.913Z,8.90
2023-02-03T01:36:38.059Z,5.70
2023-02-03T01:39:30.361Z,7.22
2023-02-03T01:42:03.941Z,6.15
2023-02-03T01:45:00.620Z,6.43
2023-02-03T01:48:19.923Z,5.87
2023-02-03T01:51:09.500Z,4.22
2023-02-03T01:53:42.181Z,6.95
2023-02-03T01:56:12.963Z,12.50
2023-02-03T01:58:47.300Z,5.93
2023-02-03T02:01:26.402Z,7.80
2023-02-03T02:04:03.125Z,8.05
2023-02-03T02:06:37.229Z,7.25
2023-02-03T02:09:12.613Z,2.90
2023-02-03T02:11:43.793Z,3.33
2023-02-03T02:14:23.044Z,6.03
2023-02-03T02:17:13.195Z,3.60
2023-02-03T02:19:58.922Z,6.35
2023-02-03T02:23:02.396Z,8.55
2023-02-03T02:25:59.331Z,6.82
2023-02-03T02:29:34.823Z,4.57
2023-02-03T02:32:39.154Z,3.08
2023-02-03T02:35:40.731Z,7.00
2023-02-03T02:38:41.559Z,6.35
2023-02-03T02:41:31.307Z,6.93
2023-02-03T02:44:21.931Z,6.67
2023-02-03T02:47:14.147Z,5.55
2023-02-03T02:50:11.055Z,9.23
2023-02-03T02:52:56.903Z,4.25
2023-02-03T02:55:39.099Z,4.18
2023-02-03T02:58:30.231Z,8.13
2023-02-03T03:01:04.096Z,4.20
2023-02-03T03:03:33.670Z,5.05
2023-02-03T03:06:15.126Z,8.68
2023-02-03T03:09:39.633Z,4.95
2023-02-03T03:12:52.377Z,6.97
2023-02-03T03:15:29.413Z,4.32
2023-02-03T03:18:59.829Z,8.02
2023-02-03T03:21:39.778Z,6.43
2023-02-03T03:24:19.075Z,10.18
2023-02-03T03:27:04.580Z,6.40
2023-02-03T03:30:02.250Z,5.70
2023-02-03T03:32:33.652Z,5.68
2023-02-03T03:35:24.677Z,4.07
2023-02-03T03:38:30.393Z,7.50
2023-02-03T03:41:10.171Z,5.53
2023-02-03T03:43:47.781Z,6.95
2023-02-03T03:46:36.398Z,6.88
2023-02-03T03:49:20.925Z,3.83
2023-02-03T03:52:08.400Z,5.40
2023-02-03T03:55:07.225Z,6.20
2023-02-03T03:57:55.482Z,6.72
2023-02-03T04:00:27.211Z,5.53
2023-02-03T04:03:30.100Z,7.65
2023-02-03T04:06:08.148Z,4.03
2023-02-03T04:08:45.053Z,3.83
2023-02-03T04:11:39.004Z,8.95
2023-02-03T04:14:11.041Z,3.08
2023-02-03T04:16:49.418Z,2.67
2023-02-03T04:19:21.488Z,6.10
2023-02-03T04:21:54.454Z,4.93
2023-02-03T04:24:27.263Z,4.78
2023-02-03T04:26:59.392Z,6.53
2023-02-03T04:29:36.823Z,3.67
2023-02-03T04:32:12.185Z,2.88
2023-02-03T04:34:56.821Z,7.47
2023-02-03T04:37:33.228Z,4.25
2023-02-03T04:40:09.133Z,5.20
2023-02-03T04:42:43.085Z,5.88
2023-02-03T04:45:23.893Z,2.80
2023-02-03T04:48:09.335Z,4.53
2023-02-03T04:50:40.542Z,6.65
2023-02-03T04:53:09.944Z,3.45
2023-02-03T04:55:53.681Z,7.43
2023-02-03T04:58:21.290Z,4.03
2023-02-03T05:00:56.271Z,3.33
2023-02-03T05:03:27.353Z,5.32
2023-02-03T05:06:07.701Z,6.30
2023-02-03T05:08:37.633Z,5.38
2023-02-03T05:11:15.358Z,4.55
2023-02-03T05:13:50.229Z,10.33
2023-02-03T05:16:22.970Z,3.33
2023-02-03T05:18:58.231Z,6.35
2023-02-03T05:21:31.500Z,3.92
2023-02-03T05:24:02.526Z,3.55
2023-02-03T05:26:46.073Z,2.70
2023-02-03T05:29:24.371Z,3.60
2023-02-03T05:31:51.943Z,2.97
2023-02-03T05:34:28.016Z,5.13
2023-02-03T05:37:10.583Z,8.13
2023-02-03T05:39:44.007Z,4.03
2023-02-03T05:42:11.825Z,5.15
2023-02-03T05:45:11.196Z,5.72
2023-02-03T05:47:49.688Z,5.85
2023-02-03T05:50:38.956Z,3.88
2023-02-03T05:53:38.752Z,4.13
2023-02-03T05:56:17.534Z,4.07
2023-02-03T05:58:47.407Z,3.05
2023-02-03T06:01:18.437Z,3.90
2023-02-03T06:03:53.075Z,6.57
2023-02-03T06:06:23.032Z,3.47
2023-02-03T06:08:57.287Z,5.53
2023-02-03T06:11:46.263Z,3.78
2023-02-03T06:14:19.557Z,5.05
2023-02-03T06:16:49.405Z,7.43
2023-02-03T06:19:21.855Z,7.87
2023-02-03T06:21:49.107Z,5.43
2023-02-03T06:24:16.277Z,3.60
2023-02-03T06:26:43.375Z,7.35
2023-02-03T06:29:10.500Z,6.70
2023-02-03T06:31:37.688Z,5.27
2023-02-03T06:34:04.945Z,3.83
2023-02-03T06:36:32.076Z,5.40
2023-02-03T06:38:59.347Z,3.67
2023-02-03T06:41:30.799Z,4.55
2023-02-03T06:44:03.193Z,5.23
2023-02-03T06:46:34.147Z,6.57
2023-02-03T06:49:01.879Z,7.50
2023-02-03T06:51:32.916Z,4.38
2023-02-03T06:54:14.963Z,3.47
2023-02-03T06:56:45.132Z,6.47
2023-02-03T06:59:19.383Z,4.63
2023-02-03T07:01:46.736Z,6.57
2023-02-03T07:04:14.207Z,4.50
2023-02-03T07:06:42.696Z,3.47
2023-02-03T07:09:22.436Z,6.20
2023-02-03T07:12:05.355Z,5.53
2023-02-03T07:14:44.829Z,6.13
2023-02-03T07:17:12.335Z,4.25
2023-02-03T07:19:49.405Z,6.70
2023-02-03T07:22:26.497Z,6.27
2023-02-03T07:24:54.834Z,5.15
2023-02-03T07:27:32.623Z,6.57
2023-02-03T07:29:59.958Z,10.23
2023-02-03T07:32:27.169Z,7.32
2023-02-03T07:34:54.325Z,7.13
2023-02-03T07:37:21.432Z,6.30
2023-02-03T07:39:49.610Z,4.47
2023-02-03T07:42:23.185Z,6.75
2023-02-03T07:45:02.023Z,5.68
2023-02-03T07:47:31.781Z,6.83
2023-02-03T07:50:01.573Z,5.00
2023-02-03T07:52:31.357Z,5.97
2023-02-03T07:54:58.811Z,6.40
2023-02-03T07:57:28.183Z,5.53
2023-02-03T07:59:55.478Z,6.07
2023-02-03T08:02:24.877Z,7.57
2023-02-03T08:05:12.491Z,6.78
2023-02-03T08:07:49.175Z,6.28
2023-02-03T08:10:19.617Z,7.38
2023-02-03T08:12:51.877Z,4.60
2023-02-03T08:15:22.979Z,4.47
2023-02-03T08:17:58.691Z,9.85
2023-02-03T08:20:37.549Z,4.53
2023-02-03T08:23:12.314Z,5.30
2023-02-03T08:25:42.420Z,2.90
2023-02-03T08:28:33.159Z,2.90
2023-02-03T08:31:05.045Z,4.70
2023-02-03T08:33:34.691Z,5.50
2023-02-03T08:36:06.305Z,7.72
2023-02-03T08:38:43.930Z,5.03
2023-02-03T08:41:21.897Z,5.07
2023-02-03T08:43:59.505Z,6.97
2023-02-03T08:46:29.409Z,2.70
2023-02-03T08:48:58.492Z,3.63
2023-02-03T08:51:34.451Z,6.87
2023-02-03T08:54:04.416Z,6.90
2023-02-03T08:56:34.206Z,7.82
2023-02-03T08:59:01.663Z,4.80
2023-02-03T09:01:29.433Z,6.50
2023-02-03T09:04:04.035Z,7.27
2023-02-03T09:06:33.656Z,5.13
2023-02-03T09:09:01.030Z,6.32
2023-02-03T09:11:28.465Z,5.68
2023-02-03T09:14:01.218Z,7.32
2023-02-03T09:16:36.001Z,5.93
2023-02-03T09:19:05.854Z,5.90
2023-02-03T09:21:43.688Z,4.70
2023-02-03T09:24:17.968Z,3.17
2023-02-03T09:26:45.634Z,3.78
2023-02-03T09:29:13.240Z,3.63
2023-02-03T09:31:43.931Z,4.15
2023-02-03T09:34:11.295Z,8.95
2023-02-03T09:36:42.793Z,4.60
2023-02-03T09:39:14.170Z,5.18
2023-02-03T09:42:22.047Z,3.90
2023-02-03T09:45:18.236Z,6.97
2023-02-03T09:47:54.149Z,4.72
2023-02-03T09:50:28.896Z,3.90
2023-02-03T09:52:59.005Z,5.18
2023-02-03T09:55:43.421Z,6.20
2023-02-03T09:58:21.291Z,4.90
2023-02-03T10:01:05.295Z,7.10
2023-02-03T10:03:36.568Z,5.55
2023-02-03T10:06:37.078Z,3.38
2023-02-03T10:09:32.561Z,5.23
2023-02-03T10:12:05.436Z,5.78
2023-02-03T10:14:41.344Z,4.55
2023-02-03T10:17:42.449Z,5.82
2023-02-03T10:20:09.751Z,7.03
2023-02-03T10:22:46.464Z,4.27
2023-02-03T10:25:25.141Z,6.93
2023-02-03T10:27:58.620Z,7.25
2023-02-03T10:30:45.474Z,6.53
2023-02-03T10:33:19.109Z,7.03
2023-02-03T10:36:10.422Z,6.67
2023-02-03T10:38:56.072Z,5.57
2023-02-03T10:41:24.743Z,5.47
2023-02-03T10:43:54.501Z,7.60
2023-02-03T10:46:30.680Z,3.88
2023-02-03T10:49:12.946Z,8.07
2023-02-03T10:51:57.963Z,6.75
2023-02-03T10:54:39.784Z,4.65
2023-02-03T10:57:16.029Z,3.50
2023-02-03T10:59:47.047Z,5.40
2023-02-03T11:02:29.520Z,5.97
2023-02-03T11:05:25.137Z,5.65
2023-02-03T11:07:55.680Z,6.20
2023-02-03T11:10:36.197Z,4.18
2023-02-03T11:13:27.720Z,6.30
2023-02-03T11:16:10.945Z,6.37
2023-02-03T11:18:48.415Z,8.02
2023-02-03T11:21:26.040Z,7.22
2023-02-03T11:24:06.880Z,5.95
2023-02-03T11:26:45.207Z,6.85
2023-02-03T11:29:45.847Z,4.67
2023-02-03T11:32:33.457Z,5.75
2023-02-03T11:35:06.602Z,4.70
2023-02-03T11:37:45.444Z,6.30
2023-02-03T11:40:22.059Z,6.13
2023-02-03T11:43:19.064Z,10.33
2023-02-03T11:45:51.145Z,8.13
2023-02-03T11:48:56.693Z,6.18
2023-02-03T11:52:19.340Z,5.15
2023-02-03T11:54:52.982Z,7.40
2023-02-03T11:58:00.268Z,8.33
2023-02-03T12:01:05.802Z,4.47
2023-02-03T12:03:51.561Z,5.57
2023-02-03T12:06:55.869Z,5.72
2023-02-03T12:10:11.642Z,5.88
2023-02-03T12:13:16.529Z,5.23
2023-02-03T12:15:55.615Z,4.78
2023-02-03T12:18:37.937Z,6.25
2023-02-03T12:21:10.540Z,6.38
2023-02-03T12:24:13.087Z,7.18
2023-02-03T12:27:11.998Z,7.30
2023-02-03T12:29:47.787Z,7.03
2023-02-03T12:32:47.338Z,4.03
2023-02-03T12:35:48.016Z,5.95
2023-02-03T12:38:34.709Z,5.70
2023-02-03T12:41:11.120Z,7.70
2023-02-03T12:43:53.473Z,6.72
2023-02-03T12:46:52.896Z,8.00
2023-02-03T12:50:21.880Z,7.78
2023-02-03T12:53:21.705Z,4.75
2023-02-03T12:56:39.996Z,4.73
2023-02-03T12:59:35.908Z,5.85
2023-02-03T13:02:35.599Z,6.22
2023-02-03T13:05:38.496Z,4.20
2023-02-03T13:08:30.527Z,6.95
2023-02-03T13:11:30.200Z,7.13
2023-02-03T13:14:39.694Z,5.65
2023-02-03T13:17:55.685Z,11.60
2023-02-03T13:20:32.612Z,6.40
2023-02-03T13:23:17.654Z,6.50
2023-02-03T13:26:04.991Z,7.60
2023-02-03T13:28:46.573Z,9.95
2023-02-03T13:31:37.975Z,6.60
2023-02-03T13:35:00.805Z,7.22
2023-02-03T13:37:59.640Z,6.72
2023-02-03T13:41:10.034Z,7.30
2023-02-03T13:43:45.567Z,12.52
2023-02-03T13:46:36.852Z,6.20
2023-02-03T13:49:08.934Z,6.45
2023-02-03T13:51:56.789Z,9.27
2023-02-03T13:54:37.946Z,8.90
2023-02-03T13:57:25.379Z,5.55
2023-02-03T14:00:03.531Z,7.28
2023-02-03T14:02:54.767Z,6.63
2023-02-03T14:06:01.516Z,6.68
2023-02-03T14:08:56.305Z,6.83
2023-02-03T14:11:35.257Z,6.88
2023-02-03T14:14:10.743Z,7.22
2023-02-03T14:16:53.415Z,6.97
2023-02-03T14:19:24.640Z,8.15
2023-02-03T14:22:13.417Z,8.00
2023-02-03T14:24:55.630Z,8.10
2023-02-03T14:27:32.936Z,7.13
2023-02-03T14:30:17.755Z,7.25
2023-02-03T14:32:58.814Z,7.25
2023-02-03T14:35:45.191Z,9.50
2023-02-03T14:38:20.996Z,9.60
2023-02-03T14:41:11.916Z,8.57
2023-02-03T14:44:02.142Z,10.50
2023-02-03T14:47:08.451Z,8.57
2023-02-03T14:49:52.378Z,7.00
2023-02-03T14:52:41.322Z,8.48
2023-02-03T14:55:28.910Z,7.40
2023-02-03T14:58:14.164Z,7.75
2023-02-03T15:00:48.794Z,8.50
2023-02-03T15:03:23.032Z,10.07
2023-02-03T15:06:07.404Z,5.95
2023-02-03T15:08:42.967Z,7.00
2023-02-03T15:11:29.082Z,5.40
2023-02-03T15:14:24.917Z,5.82
2023-02-03T15:17:00.462Z,9.03
2023-02-03T15:19:39.457Z,5.40
2023-02-03T15:22:34.668Z,6.95
2023-02-03T15:25:21.227Z,5.75
2023-02-03T15:27:55.900Z,5.25
2023-02-03T15:30:28.775Z,4.73
2023-02-03T15:33:08.460Z,5.50
2023-02-03T15:35:38.233Z,5.32
2023-02-03T15:38:14.615Z,5.13
2023-02-03T15:40:57.810Z,5.00
2023-02-03T15:43:38.344Z,6.97
2023-02-03T15:46:19.557Z,7.65
2023-02-03T15:49:01.914Z,6.05
2023-02-03T15:51:36.680Z,5.05
2023-02-03T15:54:20.789Z,4.25
2023-02-03T15:56:57.125Z,4.07
2023-02-03T15:59:37.309Z,5.28
2023-02-03T16:02:23.283Z,8.13
2023-02-03T16:04:50.821Z,4.28
2023-02-03T16:07:28.568Z,10.05
2023-02-03T16:09:58.322Z,6.33
2023-02-03T16:12:33.542Z,6.47
2023-02-03T16:15:02.017Z,6.25
2023-02-03T16:17:41.743Z,6.03
2023-02-03T16:20:11.827Z,8.10
2023-02-03T16:23:18.051Z,7.70
2023-02-03T16:26:26.367Z,5.60
2023-02-03T16:29:28.041Z,5.90
2023-02-03T16:32:14.483Z,5.35
2023-02-03T16:35:00.474Z,4.75
2023-02-03T16:37:53.320Z,5.47
2023-02-03T16:40:41.789Z,6.03
2023-02-03T16:43:32.872Z,5.63
2023-02-03T16:46:19.914Z,7.78
2023-02-03T16:49:05.973Z,5.72
2023-02-03T16:51:41.782Z,6.83
2023-02-03T16:54:17.055Z,6.65
2023-02-03T16:56:44.711Z,5.07
2023-02-03T16:59:11.942Z,5.88
2023-02-03T17:01:39.610Z,5.38
2023-02-03T17:04:14.273Z,6.90
2023-02-03T17:06:55.083Z,6.60
2023-02-03T17:09:35.086Z,6.60
2023-02-03T17:12:12.623Z,6.30
2023-02-03T17:14:50.301Z,6.80
2023-02-03T17:17:30.745Z,7.50
2023-02-03T17:20:19.269Z,4.95
2023-02-03T17:23:07.132Z,7.32
2023-02-03T17:25:53.424Z,6.57
2023-02-03T17:28:28.173Z,5.60
2023-02-03T17:31:09.278Z,8.03
2023-02-03T17:33:58.370Z,8.88
2023-02-03T17:36:35.787Z,6.93
2023-02-03T17:53:46.418Z,6.50
2023-02-03T17:56:25.354Z,10.85
2023-02-03T17:59:04.456Z,8.67
2023-02-03T18:01:38.561Z,9.65
2023-02-03T18:04:17.129Z,11.05
2023-02-03T18:06:46.304Z,8.50
2023-02-03T18:09:18.777Z,7.82
2023-02-03T18:12:01.402Z,10.77
2023-02-03T18:14:31.195Z,11.55
2023-02-03T18:17:02.675Z,8.60
2023-02-03T18:19:32.425Z,10.65
2023-02-03T18:22:02.899Z,12.32
2023-02-03T18:24:30.692Z,9.50
2023-02-03T18:27:08.737Z,12.48
2023-02-03T18:29:40.979Z,8.95
2023-02-03T18:32:08.258Z,9.90
2023-02-03T18:34:35.666Z,11.57
2023-02-03T18:37:12.245Z,10.83
2023-02-03T18:39:40.962Z,10.40
2023-02-03T18:42:08.240Z,10.13
2023-02-03T18:44:35.718Z,11.85
2023-02-03T18:47:07.035Z,11.30
2023-02-03T18:49:38.188Z,11.33
2023-02-03T18:52:05.860Z,10.68
2023-02-03T18:54:33.156Z,12.40
2023-02-03T18:57:00.456Z,11.18
2023-02-03T18:59:27.698Z,12.80
2023-02-03T19:01:54.835Z,11.90
2023-02-03T19:04:22.588Z,10.73
2023-02-03T19:06:50.102Z,9.45
2023-02-03T19:09:22.359Z,13.82
2023-02-03T19:11:52.837Z,13.20
2023-02-03T19:14:23.417Z,10.87
2023-02-03T19:16:54.434Z,10.70
2023-02-03T19:19:21.838Z,12.02
2023-02-03T19:21:52.341Z,9.57
2023-02-03T19:24:19.983Z,10.38
2023-02-03T19:26:47.133Z,10.33
2023-02-03T19:29:14.399Z,13.70
2023-02-03T19:31:45.039Z,13.65
2023-02-03T19:34:16.796Z,12.18
2023-02-03T19:36:46.076Z,12.75
2023-02-03T19:39:14.286Z,13.60
2023-02-03T19:41:41.802Z,12.07
2023-02-03T19:44:08.967Z,14.13
2023-02-03T19:46:37.681Z,10.45
2023-02-03T19:49:10.315Z,14.05
2023-02-03T19:51:37.913Z,10.60
2023-02-03T19:54:05.050Z,16.05
2023-02-03T19:56:32.479Z,16.80
2023-02-03T19:58:59.743Z,17.10
2023-02-03T20:01:27.371Z,14.65
2023-02-03T20:03:54.730Z,14.77
2023-02-03T20:06:23.340Z,14.80
2023-02-03T20:08:50.467Z,13.32
2023-02-03T20:11:21.567Z,14.70
2023-02-03T20:13:49.185Z,15.13
2023-02-03T20:16:16.791Z,14.47
2023-02-03T20:18:44.210Z,14.45
2023-02-03T20:21:11.450Z,18.70
2023-02-03T20:23:38.673Z,12.32
2023-02-03T20:26:06.073Z,14.65
2023-02-03T20:28:33.246Z,17.90
2023-02-03T20:31:02.004Z,17.20
2023-02-03T20:33:30.687Z,14.90
2023-02-03T20:35:58.280Z,15.95
2023-02-03T20:38:25.394Z,15.43
2023-02-03T20:40:52.473Z,15.33
2023-02-03T20:43:23.346Z,13.15
2023-02-03T20:45:51.612Z,20.33
2023-02-03T20:48:25.717Z,19.20
2023-02-03T20:50:53.359Z,19.70
2023-02-03T20:53:23.670Z,22.90
2023-02-03T20:55:52.720Z,18.05
2023-02-03T20:58:33.593Z,19.92
2023-02-03T21:01:00.966Z,16.98
2023-02-03T21:03:46.915Z,16.83
2023-02-03T21:06:19.804Z,20.47
2023-02-03T21:08:48.525Z,18.52
2023-02-03T21:11:19.016Z,23.27
2023-02-03T21:13:49.603Z,21.92
2023-02-03T21:16:21.167Z,18.40
2023-02-03T21:19:03.307Z,16.90
2023-02-03T21:21:42.307Z,19.83
2023-02-03T21:24:30.456Z,20.80
2023-02-03T21:27:00.214Z,17.02
2023-02-03T21:29:33.939Z,22.40
2023-02-03T21:32:01.614Z,18.17
2023-02-03T21:34:32.714Z,19.65
2023-02-03T21:37:20.724Z,26.25
2023-02-03T21:39:49.255Z,21.58
2023-02-03T21:42:41.425Z,20.45
2023-02-03T21:45:37.636Z,22.17
2023-02-03T21:48:26.907Z,19.40
2023-02-03T21:51:13.447Z,20.52
2023-02-03T21:53:40.810Z,21.77
2023-02-03T21:56:23.120Z,21.73
2023-02-03T21:58:52.231Z,21.93
2023-02-03T22:01:22.821Z,19.83
2023-02-03T22:03:53.964Z,26.77
2023-02-03T22:06:28.631Z,19.25
2023-02-03T22:08:59.404Z,19.20
2023-02-03T22:11:29.780Z,18.73
2023-02-03T22:13:57.687Z,24.02
2023-02-03T22:16:25.506Z,21.33
2023-02-03T22:18:52.691Z,21.27
2023-02-03T22:21:20.028Z,19.95
2023-02-03T22:23:48.143Z,20.60
2023-02-03T22:26:16.591Z,21.48
2023-02-03T22:28:44.870Z,24.83
2023-02-03T22:31:13.169Z,21.02
2023-02-03T22:33:41.717Z,17.85
2023-02-03T22:36:10.603Z,20.63
2023-02-03T22:38:39.657Z,21.60
2023-02-03T22:41:08.874Z,22.85
2023-02-03T22:43:36.030Z,27.70
2023-02-03T22:46:04.860Z,22.85
2023-02-03T22:48:31.962Z,20.93
2023-02-03T22:50:59.043Z,24.30
2023-02-03T22:53:26.723Z,20.50
2023-02-03T22:55:53.980Z,21.95
2023-02-03T22:58:21.328Z,19.88
2023-02-03T23:00:48.576Z,19.13
2023-02-03T23:03:15.855Z,23.10
2023-02-03T23:05:43.062Z,20.73
2023-02-03T23:08:10.444Z,24.45
2023-02-03T23:10:37.663Z,25.88
2023-02-03T23:13:04.882Z,17.93
2023-02-03T23:15:32.055Z,24.67
2023-02-03T23:17:59.231Z,20.98
2023-02-03T23:20:26.534Z,19.67
2023-02-03T23:22:53.629Z,21.73
2023-02-03T23:25:20.807Z,21.90
2023-02-03T23:27:47.961Z,22.33
2023-02-03T23:30:15.572Z,23.75
2023-02-03T23:32:42.743Z,22.25
2023-02-03T23:35:28.547Z,22.23
2023-02-03T23:37:55.769Z,21.90
2023-02-03T23:40:22.980Z,20.70
2023-02-03T23:42:50.332Z,19.70
2023-02-03T23:45:17.692Z,18.38
2023-02-03T23:47:46.191Z,26.48
2023-02-03T23:50:16.231Z,21.27
2023-02-03T23:52:43.599Z,19.48
2023-02-03T23:55:18.007Z,17.40
2023-02-03T23:57:45.929Z,22.83
